Time;durP1;ratioP1;P1;durP2;ratioP2;P2;SDS_P1;SDS_P2;PMS_P1;PMS_P2;Temp;Humidity;BMP_temperature;BMP_pressure;BME280_temperature;BME280_humidity;BME280_pressure;Samples;Min_cycle;Max_cycle;Signal;HPM_P1;HPM_P2
2022/03/16 00:00:08;;;;;;;23.93;8.03;;;;;;;;;;5036707;28;20235;-84
2022/03/16 00:02:35;;;;;;;28.53;8.53;;;;;;;;;;5037672;28;20214;-84
2022/03/16 00:05:02;;;;;;;12.80;7.57;;;;;;;;;;5036985;28;20239;-84
2022/03/16 00:07:29;;;;;;;17.13;7.93;;;;;;;;;;5037611;28;20235;-84
2022/03/16 00:09:56;;;;;;;16.80;8.07;;;;;;;;;;5036635;28;20318;-84
2022/03/16 00:12:23;;;;;;;27.23;9.33;;;;;;;;;;5036660;28;20218;-84
2022/03/16 00:14:52;;;;;;;13.23;8.13;;;;;;;;;;5049996;28;20231;-83
2022/03/16 00:17:19;;;;;;;23.33;10.63;;;;;;;;;;5052535;28;20211;-83
2022/03/16 00:19:46;;;;;;;17.03;10.53;;;;;;;;;;5051014;28;20242;-83
2022/03/16 00:22:14;;;;;;;13.33;9.17;;;;;;;;;;5045686;28;20211;-83
2022/03/16 00:24:41;;;;;;;18.23;9.47;;;;;;;;;;5038182;28;20234;-84
2022/03/16 00:27:08;;;;;;;15.33;10.90;;;;;;;;;;5041384;28;20229;-82
2022/03/16 00:29:35;;;;;;;25.27;11.50;;;;;;;;;;5041616;28;20211;-84
2022/03/16 00:32:04;;;;;;;19.90;12.60;;;;;;;;;;5037041;28;20211;-84
2022/03/16 00:34:31;;;;;;;15.03;11.03;;;;;;;;;;5036206;28;20223;-85
2022/03/16 00:36:58;;;;;;;16.67;12.17;;;;;;;;;;5037362;28;20639;-83
2022/03/16 00:39:25;;;;;;;19.43;12.93;;;;;;;;;;5050941;28;20203;-84
2022/03/16 00:41:52;;;;;;;20.17;14.53;;;;;;;;;;5037508;28;20197;-83
2022/03/16 00:44:19;;;;;;;17.50;14.07;;;;;;;;;;5036084;28;20234;-84
2022/03/16 00:46:47;;;;;;;19.13;14.17;;;;;;;;;;5036363;28;20231;-83
2022/03/16 00:49:15;;;;;;;20.07;15.00;;;;;;;;;;5037077;28;20209;-84
2022/03/16 00:51:42;;;;;;;20.83;15.47;;;;;;;;;;5047467;28;20765;-82
2022/03/16 00:54:09;;;;;;;23.07;16.23;;;;;;;;;;5049890;28;20639;-84
2022/03/16 00:56:37;;;;;;;18.47;13.83;;;;;;;;;;5045486;28;20246;-82
2022/03/16 00:59:04;;;;;;;26.27;16.13;;;;;;;;;;5052326;28;20217;-83
2022/03/16 01:01:31;;;;;;;23.73;15.03;;;;;;;;;;5037122;28;20228;-84
2022/03/16 01:03:58;;;;;;;24.73;16.70;;;;;;;;;;5036756;28;20207;-85
2022/03/16 01:06:26;;;;;;;22.43;14.57;;;;;;;;;;5036043;28;20249;-82
2022/03/16 01:08:53;;;;;;;22.60;15.27;;;;;;;;;;5037230;28;20203;-82
2022/03/16 01:11:20;;;;;;;21.70;15.60;;;;;;;;;;5037387;28;20608;-84
2022/03/16 01:13:48;;;;;;;28.33;17.33;;;;;;;;;;5036824;28;20684;-84
2022/03/16 01:16:15;;;;;;;26.47;16.83;;;;;;;;;;5036166;28;20246;-84
2022/03/16 01:18:42;;;;;;;27.30;17.03;;;;;;;;;;5037201;28;20211;-84
2022/03/16 01:21:09;;;;;;;28.63;18.13;;;;;;;;;;5044218;28;20239;-82
2022/03/16 01:23:39;;;;;;;30.10;20.93;;;;;;;;;;5052196;28;20206;-84
2022/03/16 01:26:06;;;;;;;30.10;20.00;;;;;;;;;;5051531;28;20241;-83
2022/03/16 01:28:33;;;;;;;34.73;22.60;;;;;;;;;;5050341;28;20214;-85
2022/03/16 01:31:01;;;;;;;38.03;21.03;;;;;;;;;;5039630;28;20238;-82
2022/03/16 01:33:28;;;;;;;37.90;20.93;;;;;;;;;;5038133;28;20752;-82
2022/03/16 01:35:55;;;;;;;33.47;21.50;;;;;;;;;;5037459;28;20242;-83
2022/03/16 01:38:22;;;;;;;41.73;21.87;;;;;;;;;;5038607;28;20209;-82
2022/03/16 01:40:51;;;;;;;44.93;23.30;;;;;;;;;;5038681;28;20239;-81
2022/03/16 01:43:18;;;;;;;38.17;22.90;;;;;;;;;;5038660;28;20210;-83
2022/03/16 01:45:48;;;;;;;45.73;23.77;;;;;;;;;;5038322;28;20234;-81
2022/03/16 01:48:15;;;;;;;40.57;24.87;;;;;;;;;;5025458;28;20571;-82
2022/03/16 01:50:42;;;;;;;45.57;24.13;;;;;;;;;;5038059;28;20235;-83
2022/03/16 01:53:09;;;;;;;44.17;24.00;;;;;;;;;;5037855;28;20217;-82
2022/03/16 01:55:36;;;;;;;50.83;25.27;;;;;;;;;;5036966;28;20236;-82
2022/03/16 01:58:04;;;;;;;46.07;24.50;;;;;;;;;;5038059;28;20206;-81
2022/03/16 02:00:32;;;;;;;55.73;27.87;;;;;;;;;;5035605;28;20232;-83
2022/03/16 02:02:59;;;;;;;63.47;29.07;;;;;;;;;;5034015;28;20212;-82
2022/03/16 02:05:26;;;;;;;61.03;29.17;;;;;;;;;;5027733;28;20319;-83
2022/03/16 02:07:53;;;;;;;66.07;29.50;;;;;;;;;;5037476;28;20228;-82
2022/03/16 02:10:21;;;;;;;77.47;32.20;;;;;;;;;;5038028;28;20306;-81
2022/03/16 02:12:49;;;;;;;58.60;27.77;;;;;;;;;;5038597;28;20204;-81
2022/03/16 02:15:18;;;;;;;59.57;27.47;;;;;;;;;;5036848;28;20239;-83
2022/03/16 02:17:45;;;;;;;86.17;32.30;;;;;;;;;;5036845;28;20643;-83
2022/03/16 02:20:12;;;;;;;83.93;31.17;;;;;;;;;;5037067;28;20240;-82
2022/03/16 02:22:49;;;;;;;87.27;32.07;;;;;;;;;;5038224;28;20206;-83
2022/03/16 02:25:16;;;;;;;88.40;32.90;;;;;;;;;;5037417;28;20242;-81
2022/03/16 02:27:43;;;;;;;84.43;30.00;;;;;;;;;;5038110;28;20718;-82
2022/03/16 02:30:11;;;;;;;113.80;35.67;;;;;;;;;;5036676;28;20233;-82
2022/03/16 02:32:38;;;;;;;120.33;36.60;;;;;;;;;;5038511;28;20204;-82
2022/03/16 02:35:05;;;;;;;119.80;37.50;;;;;;;;;;5036702;28;20611;-84
2022/03/16 02:37:32;;;;;;;135.77;36.70;;;;;;;;;;5038481;28;20218;-82
2022/03/16 02:40:01;;;;;;;127.40;37.67;;;;;;;;;;5038917;28;20749;-82
2022/03/16 02:42:29;;;;;;;127.57;37.40;;;;;;;;;;5040575;28;20221;-81
2022/03/16 02:44:56;;;;;;;128.40;36.73;;;;;;;;;;5038877;28;20240;-83
2022/03/16 02:47:24;;;;;;;107.63;34.03;;;;;;;;;;5038824;28;20603;-82
2022/03/16 02:49:52;;;;;;;123.17;36.53;;;;;;;;;;5039114;28;20243;-81
2022/03/16 02:52:19;;;;;;;141.83;38.10;;;;;;;;;;5041005;28;20202;-81
2022/03/16 02:54:46;;;;;;;138.90;38.10;;;;;;;;;;5040928;28;20239;-83
2022/03/16 02:57:16;;;;;;;122.43;38.43;;;;;;;;;;5044755;28;20205;-82
2022/03/16 02:59:43;;;;;;;128.53;37.17;;;;;;;;;;5041345;28;20322;-82
2022/03/16 03:02:10;;;;;;;140.23;39.23;;;;;;;;;;5040958;28;20202;-83
2022/03/16 03:04:37;;;;;;;128.90;37.93;;;;;;;;;;5041097;28;20242;-82
2022/03/16 03:07:05;;;;;;;123.43;37.17;;;;;;;;;;5040434;28;20211;-82
2022/03/16 03:09:32;;;;;;;135.50;37.83;;;;;;;;;;5038976;28;20210;-83
2022/03/16 03:11:59;;;;;;;137.80;37.23;;;;;;;;;;5040159;28;20233;-83
2022/03/16 03:14:28;;;;;;;137.27;36.80;;;;;;;;;;5039744;28;20223;-82
2022/03/16 03:16:55;;;;;;;134.43;35.87;;;;;;;;;;5040405;28;20212;-82
2022/03/16 03:19:22;;;;;;;133.40;37.17;;;;;;;;;;5039515;28;20221;-82
2022/03/16 03:21:50;;;;;;;140.93;36.60;;;;;;;;;;5043663;28;20213;-82
2022/03/16 03:24:17;;;;;;;127.60;35.60;;;;;;;;;;5049347;28;20235;-82
2022/03/16 03:26:44;;;;;;;131.03;37.13;;;;;;;;;;5040552;28;20211;-82
2022/03/16 03:29:11;;;;;;;143.50;37.93;;;;;;;;;;5041243;28;20231;-82
2022/03/16 03:31:39;;;;;;;130.13;37.07;;;;;;;;;;5039811;28;20233;-82
2022/03/16 03:34:06;;;;;;;125.93;35.73;;;;;;;;;;5040751;28;20201;-82
2022/03/16 03:36:33;;;;;;;140.33;37.60;;;;;;;;;;5039203;28;20240;-82
2022/03/16 03:39:01;;;;;;;149.87;36.03;;;;;;;;;;5020269;28;20277;-82
2022/03/16 03:41:28;;;;;;;137.90;36.33;;;;;;;;;;5036955;28;20240;-82
2022/03/16 03:43:55;;;;;;;147.93;37.87;;;;;;;;;;5040415;28;20214;-82
2022/03/16 03:46:22;;;;;;;129.07;36.63;;;;;;;;;;5039273;28;20230;-82
2022/03/16 03:48:50;;;;;;;131.77;37.40;;;;;;;;;;5035875;28;20212;-82
2022/03/16 03:51:17;;;;;;;133.20;34.67;;;;;;;;;;5024760;28;20229;-82
2022/03/16 03:53:44;;;;;;;138.10;37.23;;;;;;;;;;5039441;28;20199;-82
2022/03/16 03:56:11;;;;;;;132.00;34.47;;;;;;;;;;5029200;28;20237;-82
2022/03/16 03:58:38;;;;;;;117.93;36.90;;;;;;;;;;5020131;28;20204;-82
2022/03/16 04:01:06;;;;;;;114.00;33.17;;;;;;;;;;5019874;28;20242;-82
2022/03/16 04:03:33;;;;;;;194.83;37.07;;;;;;;;;;5019648;28;20947;-82
2022/03/16 04:06:02;;;;;;;192.43;34.17;;;;;;;;;;5019215;28;20726;-82
2022/03/16 04:08:29;;;;;;;146.30;34.80;;;;;;;;;;5018959;28;20238;-82
2022/03/16 04:10:56;;;;;;;135.60;33.37;;;;;;;;;;5018976;28;20239;-82
2022/03/16 04:13:23;;;;;;;114.27;30.20;;;;;;;;;;5033397;28;20203;-82
2022/03/16 04:15:50;;;;;;;106.27;30.17;;;;;;;;;;5038402;28;20248;-83
2022/03/16 04:18:17;;;;;;;125.60;30.40;;;;;;;;;;5038329;28;20208;-82
2022/03/16 04:20:44;;;;;;;85.63;28.43;;;;;;;;;;5038348;28;20238;-82
2022/03/16 04:23:13;;;;;;;77.30;23.20;;;;;;;;;;5037586;28;20217;-82
2022/03/16 04:25:40;;;;;;;65.00;21.73;;;;;;;;;;5036386;28;20246;-82
2022/03/16 04:28:09;;;;;;;141.77;23.60;;;;;;;;;;5035732;28;20253;-83
2022/03/16 04:30:36;;;;;;;423.67;35.10;;;;;;;;;;5035043;28;20234;-83
2022/03/16 04:33:03;;;;;;;262.47;24.87;;;;;;;;;;5035898;28;20207;-83
2022/03/16 04:35:30;;;;;;;322.90;24.90;;;;;;;;;;5035017;28;20245;-83
2022/03/16 04:37:57;;;;;;;193.23;21.40;;;;;;;;;;5034940;28;20220;-83
2022/03/16 04:40:25;;;;;;;250.23;23.03;;;;;;;;;;5035238;28;20239;-83
2022/03/16 04:42:52;;;;;;;229.13;22.57;;;;;;;;;;5037110;28;20606;-83
2022/03/16 04:45:20;;;;;;;140.30;20.70;;;;;;;;;;5035982;28;20243;-83
2022/03/16 04:47:47;;;;;;;112.03;21.17;;;;;;;;;;5035655;28;20211;-83
2022/03/16 04:50:14;;;;;;;138.97;23.90;;;;;;;;;;5035287;28;20231;-83
2022/03/16 04:52:45;;;;;;;149.07;22.87;;;;;;;;;;5035819;28;20210;-83
2022/03/16 04:55:12;;;;;;;50.90;19.70;;;;;;;;;;5035585;28;20234;-83
2022/03/16 04:57:41;;;;;;;57.33;20.07;;;;;;;;;;5035485;28;20282;-83
2022/03/16 05:00:08;;;;;;;88.40;22.90;;;;;;;;;;5035219;28;20234;-82
2022/03/16 05:02:36;;;;;;;103.37;24.27;;;;;;;;;;5035519;28;20219;-83
2022/03/16 05:05:04;;;;;;;238.87;28.80;;;;;;;;;;5035662;28;20606;-83
2022/03/16 05:07:31;;;;;;;446.00;39.90;;;;;;;;;;5035808;28;20217;-83
2022/03/16 05:09:58;;;;;;;97.63;22.13;;;;;;;;;;5035241;28;20234;-83
2022/03/16 05:12:25;;;;;;;221.13;26.97;;;;;;;;;;5025670;28;20208;-83
2022/03/16 05:14:53;;;;;;;271.67;26.73;;;;;;;;;;5026692;28;20241;-83
2022/03/16 05:17:20;;;;;;;154.40;22.33;;;;;;;;;;5027087;28;20213;-83
2022/03/16 05:19:48;;;;;;;233.70;23.60;;;;;;;;;;5037597;28;20241;-83
2022/03/16 05:22:15;;;;;;;255.90;27.83;;;;;;;;;;5037129;28;20211;-83
2022/03/16 05:24:42;;;;;;;228.00;23.27;;;;;;;;;;5036802;28;20258;-83
2022/03/16 05:27:09;;;;;;;249.70;23.67;;;;;;;;;;5036808;28;20211;-83
2022/03/16 05:29:37;;;;;;;279.63;25.40;;;;;;;;;;5036328;28;20246;-83
2022/03/16 05:32:05;;;;;;;150.47;22.97;;;;;;;;;;5037234;28;20214;-83
2022/03/16 05:34:33;;;;;;;180.47;20.70;;;;;;;;;;5034657;28;20246;-83
2022/03/16 05:37:00;;;;;;;175.83;23.77;;;;;;;;;;5033448;28;20207;-84
2022/03/16 05:39:27;;;;;;;91.27;19.57;;;;;;;;;;5025704;28;20212;-84
2022/03/16 05:41:54;;;;;;;127.60;22.70;;;;;;;;;;5032616;28;20197;-84
2022/03/16 05:44:21;;;;;;;176.20;23.57;;;;;;;;;;5022221;28;20226;-85
2022/03/16 05:46:48;;;;;;;200.70;27.97;;;;;;;;;;5005823;28;20204;-85
2022/03/16 05:49:16;;;;;;;321.60;30.97;;;;;;;;;;4996647;28;20216;-85
2022/03/16 05:51:45;;;;;;;424.30;37.63;;;;;;;;;;4993947;28;20295;-86
2022/03/16 05:54:12;;;;;;;177.93;25.67;;;;;;;;;;4993423;28;20199;-86
2022/03/16 05:56:39;;;;;;;243.63;26.13;;;;;;;;;;5012742;28;20246;-86
2022/03/16 05:59:06;;;;;;;223.37;28.37;;;;;;;;;;5018037;28;20207;-86
2022/03/16 06:01:33;;;;;;;313.97;32.73;;;;;;;;;;5023130;28;20603;-86
2022/03/16 06:04:01;;;;;;;191.07;26.03;;;;;;;;;;5022521;28;20207;-86
2022/03/16 06:06:29;;;;;;;118.40;24.80;;;;;;;;;;5036845;28;20234;-86
2022/03/16 06:08:57;;;;;;;81.43;23.77;;;;;;;;;;5046390;28;20325;-86
2022/03/16 06:11:24;;;;;;;109.53;24.90;;;;;;;;;;5026613;28;20285;-88
2022/03/16 06:13:51;;;;;;;92.43;25.43;;;;;;;;;;5032106;28;20209;-85
2022/03/16 06:16:18;;;;;;;65.10;22.40;;;;;;;;;;5033958;28;20618;-85
2022/03/16 06:18:45;;;;;;;117.27;26.07;;;;;;;;;;5033716;28;20201;-85
2022/03/16 06:21:12;;;;;;;92.93;22.97;;;;;;;;;;5032203;28;20304;-85
2022/03/16 06:23:41;;;;;;;76.87;23.40;;;;;;;;;;5032172;28;20663;-86
2022/03/16 06:26:09;;;;;;;101.60;26.73;;;;;;;;;;5022894;28;20243;-86
2022/03/16 06:28:36;;;;;;;125.07;26.23;;;;;;;;;;5011824;28;20322;-86
2022/03/16 06:31:03;;;;;;;148.13;28.23;;;;;;;;;;5012258;28;20242;-86
2022/03/16 06:33:30;;;;;;;133.37;28.77;;;;;;;;;;5013162;28;20203;-85
2022/03/16 06:35:57;;;;;;;136.23;27.17;;;;;;;;;;5013149;28;20327;-84
2022/03/16 06:38:24;;;;;;;192.73;29.57;;;;;;;;;;5012422;28;20243;-84
2022/03/16 06:40:53;;;;;;;143.50;30.53;;;;;;;;;;5012151;28;20254;-85
2022/03/16 06:43:21;;;;;;;161.17;31.70;;;;;;;;;;5012751;28;20213;-85
2022/03/16 06:45:52;;;;;;;139.40;31.07;;;;;;;;;;5014608;28;20239;-84
2022/03/16 06:48:22;;;;;;;158.13;32.43;;;;;;;;;;5017505;28;20245;-85
2022/03/16 06:50:49;;;;;;;125.57;30.13;;;;;;;;;;5012420;28;20276;-86
2022/03/16 06:53:16;;;;;;;134.80;29.60;;;;;;;;;;5012546;28;20205;-86
2022/03/16 06:55:43;;;;;;;120.93;30.90;;;;;;;;;;5012268;28;20242;-86
2022/03/16 06:58:12;;;;;;;142.00;32.43;;;;;;;;;;5031464;28;20206;-86
2022/03/16 07:00:39;;;;;;;120.07;28.40;;;;;;;;;;5032721;28;20322;-86
2022/03/16 07:03:07;;;;;;;116.73;29.40;;;;;;;;;;5032570;28;20210;-86
2022/03/16 07:05:35;;;;;;;118.63;27.63;;;;;;;;;;5032489;28;20244;-86
2022/03/16 07:08:02;;;;;;;97.70;25.60;;;;;;;;;;5034842;28;20213;-86
2022/03/16 07:10:30;;;;;;;111.10;28.17;;;;;;;;;;5040639;28;20246;-84
2022/03/16 07:12:57;;;;;;;82.27;25.53;;;;;;;;;;5050193;28;20216;-84
2022/03/16 07:15:26;;;;;;;80.57;24.53;;;;;;;;;;5040644;28;20242;-82
2022/03/16 07:17:53;;;;;;;83.93;22.60;;;;;;;;;;5035753;28;20689;-82
2022/03/16 07:20:20;;;;;;;82.33;22.90;;;;;;;;;;5035222;28;20235;-83
2022/03/16 07:22:47;;;;;;;92.33;26.30;;;;;;;;;;5034460;28;20211;-84
2022/03/16 07:25:14;;;;;;;62.40;20.47;;;;;;;;;;5034073;28;20240;-84
2022/03/16 07:27:41;;;;;;;61.33;20.20;;;;;;;;;;5034298;28;20210;-84
2022/03/16 07:30:09;;;;;;;83.77;23.73;;;;;;;;;;5036828;28;20703;-84
2022/03/16 07:32:39;;;;;;;83.43;24.13;;;;;;;;;;5037146;28;20704;-84
2022/03/16 07:35:06;;;;;;;65.43;22.77;;;;;;;;;;5036583;28;20323;-84
2022/03/16 07:37:34;;;;;;;72.70;23.63;;;;;;;;;;5036850;28;20215;-84
2022/03/16 07:40:02;;;;;;;73.97;24.93;;;;;;;;;;5036957;28;20764;-84
2022/03/16 07:42:30;;;;;;;69.23;23.23;;;;;;;;;;5037010;28;20706;-85
2022/03/16 07:44:57;;;;;;;52.83;21.17;;;;;;;;;;5036601;28;20239;-84
2022/03/16 07:47:24;;;;;;;41.43;17.90;;;;;;;;;;5036572;28;20216;-85
2022/03/16 07:49:53;;;;;;;47.37;19.80;;;;;;;;;;5035671;28;20314;-84
2022/03/16 07:52:21;;;;;;;45.23;19.87;;;;;;;;;;5036577;28;20217;-84
2022/03/16 07:54:48;;;;;;;39.07;18.40;;;;;;;;;;5035487;28;20265;-84
2022/03/16 07:57:16;;;;;;;30.67;17.17;;;;;;;;;;5035955;28;20209;-85
2022/03/16 07:59:43;;;;;;;33.87;16.90;;;;;;;;;;5025093;28;20322;-85
2022/03/16 08:02:10;;;;;;;45.63;20.10;;;;;;;;;;5023344;28;20309;-85
2022/03/16 08:04:37;;;;;;;49.27;21.03;;;;;;;;;;5012651;28;20244;-84
2022/03/16 08:07:06;;;;;;;53.57;21.83;;;;;;;;;;4996451;28;20215;-84
2022/03/16 08:09:33;;;;;;;47.77;20.03;;;;;;;;;;4996149;28;20251;-84
2022/03/16 08:12:00;;;;;;;48.57;21.93;;;;;;;;;;4996785;28;20690;-84
2022/03/16 08:14:27;;;;;;;41.93;20.93;;;;;;;;;;4995596;28;20231;-84
2022/03/16 08:16:54;;;;;;;47.33;21.73;;;;;;;;;;4996266;28;20212;-84
2022/03/16 08:19:21;;;;;;;66.63;25.03;;;;;;;;;;4996649;28;20208;-84
2022/03/16 08:21:48;;;;;;;62.33;25.70;;;;;;;;;;4996944;28;20208;-84
2022/03/16 08:24:17;;;;;;;67.67;25.50;;;;;;;;;;4996051;28;20296;-84
2022/03/16 08:26:44;;;;;;;68.33;25.40;;;;;;;;;;4996465;28;20282;-84
2022/03/16 08:29:11;;;;;;;74.63;27.93;;;;;;;;;;4995298;28;20234;-85
2022/03/16 08:31:39;;;;;;;72.77;28.40;;;;;;;;;;4994084;28;20236;-85
2022/03/16 08:34:07;;;;;;;67.60;27.90;;;;;;;;;;5008918;28;20234;-85
2022/03/16 08:36:34;;;;;;;67.87;26.60;;;;;;;;;;5013827;28;20235;-85
2022/03/16 08:39:03;;;;;;;61.57;26.70;;;;;;;;;;5014891;28;20215;-86
2022/03/16 08:41:33;;;;;;;44.07;22.17;;;;;;;;;;5013924;28;20235;-86
2022/03/16 08:44:00;;;;;;;45.50;22.67;;;;;;;;;;5015141;28;20207;-85
2022/03/16 08:46:27;;;;;;;44.47;22.37;;;;;;;;;;5014430;28;20235;-85
2022/03/16 08:48:54;;;;;;;29.27;19.83;;;;;;;;;;5018702;28;20175;-85
2022/03/16 08:51:21;;;;;;;36.30;20.63;;;;;;;;;;5023775;28;20235;-85
2022/03/16 08:53:49;;;;;;;31.70;21.10;;;;;;;;;;5015015;28;20203;-85
2022/03/16 08:56:17;;;;;;;32.20;19.70;;;;;;;;;;5014696;28;20762;-84
2022/03/16 08:58:45;;;;;;;30.43;19.13;;;;;;;;;;5015769;28;20200;-85
2022/03/16 09:01:12;;;;;;;26.43;18.87;;;;;;;;;;5014451;28;20711;-84
2022/03/16 09:03:39;;;;;;;27.37;18.23;;;;;;;;;;5015354;28;20541;-85
2022/03/16 09:06:06;;;;;;;26.87;17.97;;;;;;;;;;5015203;28;20242;-84
2022/03/16 09:08:33;;;;;;;23.63;16.33;;;;;;;;;;5015210;28;20667;-84
2022/03/16 09:11:01;;;;;;;23.77;16.37;;;;;;;;;;5014272;28;20703;-84
2022/03/16 09:13:28;;;;;;;17.40;12.67;;;;;;;;;;5015385;28;20235;-85
2022/03/16 09:16:01;;;;;;;17.47;13.73;;;;;;;;;;5014916;28;20234;-84
2022/03/16 09:18:28;;;;;;;14.43;12.60;;;;;;;;;;5013816;28;20211;-83
2022/03/16 09:20:55;;;;;;;15.63;12.13;;;;;;;;;;5013490;28;20735;-83
2022/03/16 09:23:22;;;;;;;15.00;12.13;;;;;;;;;;5014024;28;20228;-84
2022/03/16 09:25:49;;;;;;;12.27;10.60;;;;;;;;;;5013430;28;20239;-84
2022/03/16 09:28:16;;;;;;;12.53;9.97;;;;;;;;;;5014200;28;20214;-83
2022/03/16 09:30:43;;;;;;;12.03;9.47;;;;;;;;;;5015252;28;20239;-84
2022/03/16 09:33:12;;;;;;;12.13;10.23;;;;;;;;;;4999279;28;20219;-84
2022/03/16 09:35:39;;;;;;;12.73;10.40;;;;;;;;;;5027691;28;20238;-84
2022/03/16 09:38:06;;;;;;;13.93;10.90;;;;;;;;;;5034104;28;20217;-84
2022/03/16 09:40:36;;;;;;;11.37;10.10;;;;;;;;;;5023553;28;20672;-83
2022/03/16 09:43:07;;;;;;;11.70;10.20;;;;;;;;;;5014653;28;20212;-83
2022/03/16 09:45:39;;;;;;;12.63;8.90;;;;;;;;;;5025476;28;20246;-85
2022/03/16 09:48:07;;;;;;;12.03;10.10;;;;;;;;;;5035398;28;20186;-84
2022/03/16 09:50:37;;;;;;;10.30;9.13;;;;;;;;;;5021878;28;20654;-84
2022/03/16 09:53:05;;;;;;;13.53;8.53;;;;;;;;;;5013537;28;20239;-85
2022/03/16 09:55:33;;;;;;;9.50;8.50;;;;;;;;;;5013167;28;20300;-85
2022/03/16 09:58:00;;;;;;;11.83;9.27;;;;;;;;;;5015866;28;20688;-84
2022/03/16 10:00:27;;;;;;;12.07;8.80;;;;;;;;;;5012881;28;20247;-85
2022/03/16 10:02:55;;;;;;;9.13;7.93;;;;;;;;;;5013525;28;20603;-85
2022/03/16 10:05:23;;;;;;;9.87;8.87;;;;;;;;;;5013496;28;20620;-83
2022/03/16 10:07:54;;;;;;;11.47;9.10;;;;;;;;;;5015383;28;20188;-84
2022/03/16 10:13:15;;;;;;;9.50;8.13;;;;;;;;;;5013615;28;20678;-84
2022/03/16 10:15:43;;;;;;;9.20;8.20;;;;;;;;;;5014525;28;20250;-84
2022/03/16 10:18:10;;;;;;;10.80;8.10;;;;;;;;;;5018893;28;20195;-84
2022/03/16 10:20:39;;;;;;;10.83;8.27;;;;;;;;;;5012277;28;20239;-84
2022/03/16 10:23:10;;;;;;;10.70;9.53;;;;;;;;;;5013345;28;20192;-84
2022/03/16 10:25:37;;;;;;;9.47;8.10;;;;;;;;;;5012900;28;20271;-84
2022/03/16 10:28:11;;;;;;;10.20;8.47;;;;;;;;;;5012963;28;20676;-85
2022/03/16 10:30:38;;;;;;;10.53;8.50;;;;;;;;;;5012865;28;20207;-85
2022/03/16 10:33:06;;;;;;;9.17;7.80;;;;;;;;;;5013296;28;20214;-85
2022/03/16 10:35:34;;;;;;;9.43;8.20;;;;;;;;;;5012368;28;20262;-85
2022/03/16 10:38:10;;;;;;;9.07;8.17;;;;;;;;;;5013162;28;20211;-85
2022/03/16 10:40:37;;;;;;;9.27;8.00;;;;;;;;;;5012306;28;20342;-85
2022/03/16 10:48:58;;;;;;;8.83;7.93;;;;;;;;;;5013182;28;20186;-85
2022/03/16 10:51:25;;;;;;;9.10;8.20;;;;;;;;;;5013390;28;20673;-85
2022/03/16 10:53:53;;;;;;;9.53;7.70;;;;;;;;;;5014498;28;20203;-86
2022/03/16 10:56:21;;;;;;;8.60;7.70;;;;;;;;;;5012580;28;20703;-85
2022/03/16 10:58:50;;;;;;;9.37;8.33;;;;;;;;;;5014865;28;20210;-84
2022/03/16 11:01:18;;;;;;;8.83;8.00;;;;;;;;;;5012538;28;20313;-85
2022/03/16 11:03:46;;;;;;;8.87;7.93;;;;;;;;;;5013730;28;20191;-85
2022/03/16 11:06:15;;;;;;;8.63;7.73;;;;;;;;;;5016196;28;20258;-85
2022/03/16 11:08:44;;;;;;;9.50;8.50;;;;;;;;;;5016568;28;20679;-85
2022/03/16 11:13:58;;;;;;;10.80;8.13;;;;;;;;;;5015505;28;20211;-85
2022/03/16 11:16:26;;;;;;;8.43;7.53;;;;;;;;;;5015979;28;20242;-85
2022/03/16 11:18:53;;;;;;;7.50;6.80;;;;;;;;;;5016594;28;20204;-85
2022/03/16 11:21:24;;;;;;;8.77;7.35;;;;;;;;;;5016452;28;20239;-84
2022/03/16 11:26:46;;;;;;;9.77;8.27;;;;;;;;;;5016683;28;20238;-85
2022/03/16 11:29:17;;;;;;;8.10;7.30;;;;;;;;;;5016681;28;20207;-85
2022/03/16 11:31:44;;;;;;;8.70;7.82;;;;;;;;;;5017553;28;20238;-85
2022/03/16 11:34:11;;;;;;;9.10;8.00;;;;;;;;;;5016685;28;20286;-85
2022/03/16 11:36:40;;;;;;;7.68;6.88;;;;;;;;;;5016120;28;20584;-85
2022/03/16 11:39:15;;;;;;;8.95;8.05;;;;;;;;;;5016259;28;20589;-86
2022/03/16 11:41:50;;;;;;;8.50;7.60;;;;;;;;;;5020197;28;20269;-85
2022/03/16 11:44:28;;;;;;;7.43;6.78;;;;;;;;;;5020063;28;20242;-85
2022/03/16 11:46:56;;;;;;;8.60;7.80;;;;;;;;;;5016045;28;20235;-85
2022/03/16 11:49:29;;;;;;;8.55;7.10;;;;;;;;;;5016401;28;20202;-85
2022/03/16 11:51:59;;;;;;;8.25;7.45;;;;;;;;;;5016002;28;20254;-85
2022/03/16 11:54:40;;;;;;;9.00;8.10;;;;;;;;;;5016351;28;20248;-85
2022/03/16 11:57:11;;;;;;;8.55;7.75;;;;;;;;;;5015565;28;20258;-85
2022/03/16 11:59:45;;;;;;;8.55;7.75;;;;;;;;;;5016517;28;20192;-85
2022/03/16 12:02:14;;;;;;;8.13;7.22;;;;;;;;;;5021863;28;20235;-85
2022/03/16 12:04:43;;;;;;;8.20;7.50;;;;;;;;;;5016441;28;20596;-86
2022/03/16 12:07:12;;;;;;;8.27;7.25;;;;;;;;;;5010849;28;20245;-84
2022/03/16 12:09:41;;;;;;;8.90;7.95;;;;;;;;;;4998919;28;20211;-85
2022/03/16 12:15:15;;;;;;;9.55;7.65;;;;;;;;;;5015346;28;20219;-85
2022/03/16 12:17:42;;;;;;;9.05;8.15;;;;;;;;;;5015636;28;20281;-85
2022/03/16 12:20:15;;;;;;;7.97;7.28;;;;;;;;;;5015533;28;20238;-87
2022/03/16 12:22:46;;;;;;;9.02;7.93;;;;;;;;;;5015354;28;20305;-85
2022/03/16 12:25:28;;;;;;;8.13;7.43;;;;;;;;;;5014764;28;20220;-85
2022/03/16 12:30:42;;;;;;;8.68;7.78;;;;;;;;;;5014433;28;20655;-85
2022/03/16 12:33:12;;;;;;;8.32;7.53;;;;;;;;;;5015316;28;20211;-84
2022/03/16 12:35:39;;;;;;;8.85;7.95;;;;;;;;;;5014852;28;20262;-85
2022/03/16 12:38:09;;;;;;;8.73;7.85;;;;;;;;;;5015770;28;20257;-85
2022/03/16 12:42:30;;;;;;;9.10;8.20;;;;;;;;;;5014371;28;20261;-85
2022/03/16 12:43:27;;;;;;;9.00;8.20;;;;;;;;;;5015172;28;20269;-88
2022/03/16 12:46:01;;;;;;;8.98;7.90;;;;;;;;;;5016551;28;20255;-87
2022/03/16 12:48:33;;;;;;;8.98;8.07;;;;;;;;;;5018533;28;20214;-86
2022/03/16 12:51:01;;;;;;;9.98;7.97;;;;;;;;;;5014880;28;20288;-85
2022/03/16 12:53:34;;;;;;;8.50;7.70;;;;;;;;;;5018341;28;20191;-85
2022/03/16 12:56:01;;;;;;;8.82;8.02;;;;;;;;;;5016172;28;20719;-85
2022/03/16 12:58:30;;;;;;;9.07;8.18;;;;;;;;;;5014713;28;20207;-85
2022/03/16 13:01:00;;;;;;;17.55;8.77;;;;;;;;;;5015324;28;20231;-86
2022/03/16 13:03:27;;;;;;;9.30;8.38;;;;;;;;;;5016330;28;20208;-86
2022/03/16 13:05:54;;;;;;;10.00;8.10;;;;;;;;;;5016065;28;20242;-85
2022/03/16 13:08:23;;;;;;;9.60;7.93;;;;;;;;;;5016011;28;20290;-86
2022/03/16 13:14:00;;;;;;;9.10;8.20;;;;;;;;;;5012472;28;20231;-86
2022/03/16 13:16:34;;;;;;;9.13;8.23;;;;;;;;;;5015965;28;20251;-85
2022/03/16 13:19:02;;;;;;;8.77;7.95;;;;;;;;;;5014961;28;20257;-85
2022/03/16 13:21:30;;;;;;;8.75;7.95;;;;;;;;;;5017594;28;20243;-86
2022/03/16 13:24:04;;;;;;;12.15;8.20;;;;;;;;;;5016065;28;20275;-85
2022/03/16 13:26:31;;;;;;;9.30;8.40;;;;;;;;;;5032066;28;20230;-85
2022/03/16 13:29:00;;;;;;;9.57;8.68;;;;;;;;;;5035131;28;20233;-83
2022/03/16 13:31:28;;;;;;;16.50;8.70;;;;;;;;;;5034699;28;20724;-84
2022/03/16 13:33:55;;;;;;;9.23;8.32;;;;;;;;;;5033931;28;20683;-84
2022/03/16 13:36:32;;;;;;;9.95;8.95;;;;;;;;;;5034095;28;20247;-83
2022/03/16 13:39:00;;;;;;;10.65;8.32;;;;;;;;;;5023582;28;20698;-83
2022/03/16 13:41:27;;;;;;;10.27;8.85;;;;;;;;;;5029787;28;20238;-83
2022/03/16 13:44:06;;;;;;;9.73;8.60;;;;;;;;;;5035456;28;20207;-84
2022/03/16 13:46:40;;;;;;;9.77;8.77;;;;;;;;;;5041662;28;20276;-86
2022/03/16 13:49:15;;;;;;;9.73;8.27;;;;;;;;;;5034651;28;20203;-85
2022/03/16 13:51:58;;;;;;;10.38;9.18;;;;;;;;;;5019250;28;20243;-86
2022/03/16 13:54:26;;;;;;;10.05;8.88;;;;;;;;;;5005848;28;20259;-85
2022/03/16 13:56:53;;;;;;;9.75;8.75;;;;;;;;;;5013248;28;20608;-85
2022/03/16 13:59:22;;;;;;;11.18;8.55;;;;;;;;;;5013776;28;20215;-84
2022/03/16 14:01:50;;;;;;;11.10;8.88;;;;;;;;;;5013238;28;20254;-84
2022/03/16 14:04:21;;;;;;;10.05;8.95;;;;;;;;;;5014089;28;20227;-84
2022/03/16 14:06:54;;;;;;;10.27;8.77;;;;;;;;;;5013711;28;20239;-84
2022/03/16 14:09:21;;;;;;;10.07;9.07;;;;;;;;;;5014601;28;20664;-84
2022/03/16 14:11:49;;;;;;;10.77;8.90;;;;;;;;;;5013906;28;20235;-84
2022/03/16 14:14:19;;;;;;;10.02;8.98;;;;;;;;;;5014372;28;20660;-83
2022/03/16 14:16:49;;;;;;;10.00;9.00;;;;;;;;;;5015043;28;20281;-86
2022/03/16 14:19:25;;;;;;;10.50;9.50;;;;;;;;;;5013927;28;20553;-86
2022/03/16 14:21:52;;;;;;;9.27;8.38;;;;;;;;;;5012713;28;20227;-86
2022/03/16 14:24:22;;;;;;;9.70;8.73;;;;;;;;;;5013047;28;20231;-86
2022/03/16 14:26:49;;;;;;;10.27;9.27;;;;;;;;;;5013375;28;20242;-87
2022/03/16 14:29:16;;;;;;;10.70;9.60;;;;;;;;;;5013184;28;20253;-86
2022/03/16 14:31:44;;;;;;;10.70;9.55;;;;;;;;;;5013131;28;20752;-87
2022/03/16 14:34:12;;;;;;;9.77;8.77;;;;;;;;;;5013642;28;20180;-86
2022/03/16 14:36:40;;;;;;;12.48;9.95;;;;;;;;;;5013508;28;20245;-86
2022/03/16 14:39:07;;;;;;;11.48;9.40;;;;;;;;;;5014801;28;20214;-86
2022/03/16 14:41:38;;;;;;;11.73;10.57;;;;;;;;;;5016605;28;20243;-87
2022/03/16 14:44:06;;;;;;;11.18;9.80;;;;;;;;;;5017928;28;20235;-86
2022/03/16 14:46:33;;;;;;;12.50;10.13;;;;;;;;;;5017409;28;20242;-87
2022/03/16 14:49:00;;;;;;;11.60;10.40;;;;;;;;;;5017828;28;20192;-87